createdAt,value
2017-08-15T00:00:55.266Z,2.60
2017-08-15T00:03:44.649Z,3.33
2017-08-15T00:06:34.352Z,3.97
2017-08-15T00:09:24.323Z,3.30
2017-08-15T00:12:12.696Z,2.93
2017-08-15T00:17:51.394Z,3.30
2017-08-15T00:20:24.341Z,2.90
2017-08-15T00:23:02.002Z,2.97
2017-08-15T00:25:35.673Z,2.90
2017-08-15T00:28:09.576Z,3.20
2017-08-15T00:30:42.821Z,3.53
2017-08-15T00:33:16.162Z,2.90
2017-08-15T00:35:49.632Z,3.20
2017-08-15T00:38:23.081Z,3.13
2017-08-15T00:40:56.855Z,3.53
2017-08-15T00:43:31.151Z,3.17
2017-08-15T00:46:03.980Z,3.23
2017-08-15T00:48:45.555Z,3.20
2017-08-15T00:51:23.358Z,2.73
2017-08-15T00:54:01.486Z,3.00
2017-08-15T00:56:37.728Z,2.70
2017-08-15T00:59:13.565Z,3.17
2017-08-15T01:01:49.370Z,3.20
2017-08-15T01:04:25.532Z,3.00
2017-08-15T01:07:00.812Z,3.00
2017-08-15T01:09:35.508Z,3.30
2017-08-15T01:12:09.449Z,3.13
2017-08-15T01:14:45.653Z,3.07
2017-08-15T01:17:22.973Z,3.53
2017-08-15T01:19:59.096Z,3.70
2017-08-15T01:22:35.431Z,3.20
2017-08-15T01:25:10.309Z,3.97
2017-08-15T01:27:46.193Z,3.20
2017-08-15T01:30:25.430Z,3.47
2017-08-15T01:33:06.341Z,3.20
2017-08-15T01:35:42.304Z,3.40
2017-08-15T01:38:18.687Z,4.00
2017-08-15T01:40:57.200Z,3.90
2017-08-15T01:43:32.526Z,3.00
2017-08-15T01:46:09.430Z,3.60
2017-08-15T01:48:45.006Z,3.30
2017-08-15T01:51:20.083Z,4.00
2017-08-15T01:53:56.413Z,3.57
2017-08-15T01:56:29.317Z,3.50
2017-08-15T01:59:04.673Z,3.53
2017-08-15T02:01:38.079Z,3.30
2017-08-15T02:04:11.453Z,3.20
2017-08-15T02:06:44.758Z,4.00
2017-08-15T02:09:29.103Z,4.00
2017-08-15T02:12:05.494Z,4.17
2017-08-15T02:14:40.657Z,4.20
2017-08-15T02:17:15.691Z,3.33
2017-08-15T02:19:48.611Z,3.60
2017-08-15T02:22:24.079Z,3.73
2017-08-15T02:24:57.137Z,4.23
2017-08-15T02:27:30.371Z,3.47
2017-08-15T02:30:04.004Z,3.70
2017-08-15T02:32:37.028Z,3.70
2017-08-15T02:35:10.594Z,4.10
2017-08-15T02:37:43.811Z,3.70
2017-08-15T02:40:17.271Z,3.00
2017-08-15T02:42:52.083Z,3.63
2017-08-15T02:45:27.506Z,3.80
2017-08-15T02:48:02.760Z,4.00
2017-08-15T02:50:37.918Z,4.13
2017-08-15T02:53:12.661Z,4.00
2017-08-15T02:55:47.388Z,4.10
2017-08-15T02:58:24.684Z,3.73
2017-08-15T03:01:00.462Z,4.13
2017-08-15T03:03:36.288Z,4.10
2017-08-15T03:06:10.800Z,3.80
2017-08-15T03:08:45.624Z,4.73
2017-08-15T03:11:21.465Z,4.10
2017-08-15T03:13:56.746Z,3.67
2017-08-15T03:16:33.947Z,4.70
2017-08-15T03:19:09.944Z,4.53
2017-08-15T03:21:44.868Z,3.77
2017-08-15T03:24:22.019Z,3.33
2017-08-15T03:26:55.926Z,3.90
2017-08-15T03:29:31.684Z,4.00
2017-08-15T03:32:07.938Z,4.33
2017-08-15T03:34:42.250Z,3.80
2017-08-15T03:37:16.148Z,3.83
2017-08-15T03:39:51.324Z,4.17
2017-08-15T03:42:26.116Z,3.80
2017-08-15T03:44:59.895Z,4.20
2017-08-15T03:47:40.917Z,4.50
2017-08-15T03:50:15.363Z,3.90
2017-08-15T03:52:48.760Z,4.13
2017-08-15T03:55:24.211Z,4.30
2017-08-15T03:57:57.768Z,4.47
2017-08-15T04:00:32.322Z,3.90
2017-08-15T04:03:11.969Z,4.00
2017-08-15T04:05:48.563Z,3.73
2017-08-15T04:08:28.847Z,3.70
2017-08-15T04:11:03.032Z,4.40
2017-08-15T04:13:38.367Z,4.17
2017-08-15T04:16:12.883Z,3.80
2017-08-15T04:18:48.185Z,3.80
2017-08-15T04:21:21.306Z,4.23
2017-08-15T04:23:54.509Z,5.30
2017-08-15T04:26:27.993Z,4.43
2017-08-15T04:29:01.164Z,4.07
2017-08-15T04:31:34.543Z,4.37
2017-08-15T04:34:07.748Z,5.20
2017-08-15T04:36:41.210Z,4.60
2017-08-15T04:39:14.595Z,4.93
2017-08-15T04:41:49.849Z,4.17
2017-08-15T04:44:23.015Z,4.60
2017-08-15T04:46:56.165Z,4.90
2017-08-15T04:49:28.938Z,3.93
2017-08-15T04:52:02.324Z,4.00
2017-08-15T04:54:57.440Z,4.57
2017-08-15T04:57:31.306Z,4.40
2017-08-15T05:00:10.721Z,4.70
2017-08-15T05:02:43.743Z,4.80
2017-08-15T05:05:17.288Z,4.90
2017-08-15T05:07:50.724Z,4.73
2017-08-15T05:10:23.809Z,4.83
2017-08-15T05:12:57.126Z,4.10
2017-08-15T05:15:32.303Z,4.10
2017-08-15T05:18:05.554Z,4.83
2017-08-15T05:20:39.913Z,4.80
2017-08-15T05:23:13.312Z,4.67
2017-08-15T05:25:46.445Z,4.80
2017-08-15T05:28:20.105Z,4.77
2017-08-15T05:30:53.649Z,4.60
2017-08-15T05:33:29.210Z,4.83
2017-08-15T05:36:06.502Z,4.40
2017-08-15T05:38:39.282Z,5.40
2017-08-15T05:41:13.966Z,4.60
2017-08-15T05:43:47.344Z,5.20
2017-08-15T05:46:20.826Z,4.53
2017-08-15T05:48:53.633Z,4.90
2017-08-15T05:51:27.426Z,5.03
2017-08-15T05:54:01.130Z,4.80
2017-08-15T05:56:36.274Z,4.90
2017-08-15T05:59:11.684Z,5.17
2017-08-15T06:01:46.145Z,5.07
2017-08-15T06:04:22.481Z,4.83
2017-08-15T06:06:57.941Z,4.87
2017-08-15T06:09:33.988Z,5.60
2017-08-15T06:12:08.419Z,5.00
2017-08-15T06:14:42.968Z,4.37
2017-08-15T06:17:18.228Z,4.93
2017-08-15T06:19:51.183Z,4.73
2017-08-15T06:22:24.521Z,4.53
2017-08-15T06:24:57.603Z,4.40
2017-08-15T06:27:31.012Z,4.90
2017-08-15T06:30:04.640Z,4.50
2017-08-15T06:32:37.756Z,5.53
2017-08-15T06:35:11.093Z,5.57
2017-08-15T06:37:44.684Z,5.20
2017-08-15T06:40:17.837Z,5.27
2017-08-15T06:42:52.915Z,5.03
2017-08-15T06:45:25.466Z,5.80
2017-08-15T06:47:58.943Z,6.00
2017-08-15T06:50:34.264Z,5.73
2017-08-15T06:53:07.538Z,5.17
2017-08-15T06:55:40.983Z,5.40
2017-08-15T06:58:14.516Z,6.33
2017-08-15T07:00:48.670Z,5.90
2017-08-15T07:03:21.692Z,5.90
2017-08-15T07:05:55.012Z,5.37
2017-08-15T07:08:28.454Z,5.37
2017-08-15T07:11:02.146Z,5.63
2017-08-15T07:13:35.866Z,6.00
2017-08-15T07:16:10.231Z,6.07
2017-08-15T07:18:43.579Z,5.90
2017-08-15T07:21:16.887Z,6.27
2017-08-15T07:23:51.089Z,6.20
2017-08-15T07:26:25.170Z,5.67
2017-08-15T07:28:57.635Z,5.30
2017-08-15T07:31:32.411Z,5.53
2017-08-15T07:34:05.576Z,5.30
2017-08-15T07:36:38.850Z,5.50
2017-08-15T07:39:12.140Z,5.80
2017-08-15T07:41:45.696Z,5.87
2017-08-15T07:44:18.884Z,5.57
2017-08-15T07:46:53.113Z,5.20
2017-08-15T07:49:26.399Z,5.60
2017-08-15T07:51:59.875Z,5.43
2017-08-15T07:54:33.328Z,5.67
2017-08-15T07:57:06.504Z,5.30
2017-08-15T07:59:40.801Z,6.27
2017-08-15T08:02:15.242Z,5.97
2017-08-15T08:04:48.645Z,5.70
2017-08-15T08:07:22.111Z,5.70
2017-08-15T08:09:55.377Z,5.60
2017-08-15T08:12:29.436Z,6.07
2017-08-15T08:15:02.094Z,5.23
2017-08-15T08:17:37.281Z,6.27
2017-08-15T08:20:10.668Z,5.57
2017-08-15T08:22:45.300Z,5.80
2017-08-15T08:25:19.595Z,5.87
2017-08-15T08:27:52.742Z,6.47
2017-08-15T08:30:26.158Z,5.50
2017-08-15T08:33:02.924Z,6.57
2017-08-15T08:35:36.749Z,5.97
2017-08-15T08:38:11.396Z,5.80
2017-08-15T08:40:45.540Z,6.10
2017-08-15T08:43:20.326Z,6.00
2017-08-15T08:45:53.185Z,6.17
2017-08-15T08:48:26.457Z,6.10
2017-08-15T08:50:59.744Z,5.90
2017-08-15T08:53:32.860Z,6.30
2017-08-15T08:56:06.496Z,5.77
2017-08-15T08:58:39.568Z,6.20
2017-08-15T09:01:13.535Z,5.83
2017-08-15T09:03:47.510Z,6.00
2017-08-15T09:06:21.549Z,5.93
2017-08-15T09:08:55.816Z,6.53
2017-08-15T09:11:29.548Z,6.00
2017-08-15T09:14:03.729Z,5.70
2017-08-15T09:16:37.486Z,6.10
2017-08-15T09:19:11.201Z,5.93
2017-08-15T09:21:44.949Z,6.80
2017-08-15T09:24:18.024Z,6.30
2017-08-15T09:26:52.095Z,6.10
2017-08-15T09:29:24.666Z,6.60
2017-08-15T09:31:58.098Z,6.20
2017-08-15T09:34:30.982Z,5.90
2017-08-15T09:37:04.240Z,5.90
2017-08-15T09:39:37.684Z,6.70
2017-08-15T09:42:11.082Z,5.83
2017-08-15T09:44:46.361Z,5.73
2017-08-15T09:47:19.355Z,6.63
2017-08-15T09:49:52.293Z,6.00
2017-08-15T09:52:26.498Z,6.70
2017-08-15T09:54:59.956Z,6.43
2017-08-15T09:57:32.581Z,6.00
2017-08-15T10:00:05.940Z,5.47
2017-08-15T10:02:40.932Z,5.63
2017-08-15T10:05:14.668Z,5.93
2017-08-15T10:07:48.860Z,6.07
2017-08-15T10:10:22.436Z,5.90
2017-08-15T10:12:55.836Z,6.43
2017-08-15T10:15:29.786Z,5.50
2017-08-15T10:18:02.670Z,5.90
2017-08-15T10:20:36.948Z,5.90
2017-08-15T10:23:10.388Z,5.67
2017-08-15T10:25:43.821Z,5.60
2017-08-15T10:28:17.193Z,6.43
2017-08-15T10:30:50.300Z,6.20
2017-08-15T10:33:23.899Z,6.30
2017-08-15T10:35:57.754Z,5.83
2017-08-15T10:38:30.641Z,6.10
2017-08-15T10:41:04.535Z,7.07
2017-08-15T10:43:37.311Z,5.83
2017-08-15T10:46:11.562Z,6.70
2017-08-15T10:48:44.891Z,6.80
2017-08-15T10:51:19.047Z,6.67
2017-08-15T10:53:52.601Z,6.20
2017-08-15T10:56:26.066Z,6.13
2017-08-15T10:58:59.489Z,6.30
2017-08-15T11:01:33.937Z,5.67
2017-08-15T11:04:07.026Z,6.30
2017-08-15T11:06:40.506Z,6.73
2017-08-15T11:09:14.180Z,6.63
2017-08-15T11:11:48.806Z,5.97
2017-08-15T11:14:21.553Z,6.10
2017-08-15T11:16:54.824Z,6.20
2017-08-15T11:19:28.529Z,5.80
2017-08-15T11:22:02.144Z,6.17
2017-08-15T11:24:35.088Z,6.33
2017-08-15T11:27:08.146Z,6.40
2017-08-15T11:29:42.247Z,6.10
2017-08-15T11:32:15.506Z,5.97
2017-08-15T11:34:48.565Z,5.63
2017-08-15T11:37:21.855Z,5.97
2017-08-15T11:39:55.417Z,7.20
2017-08-15T11:42:28.665Z,5.73
2017-08-15T11:45:02.825Z,5.60
2017-08-15T11:47:35.459Z,5.40
2017-08-15T11:50:08.946Z,5.67
2017-08-15T11:52:42.256Z,5.20
2017-08-15T11:55:15.613Z,5.90
2017-08-15T11:57:49.033Z,5.97
2017-08-15T12:00:23.885Z,5.23
2017-08-15T12:02:57.479Z,5.90
2017-08-15T12:05:30.289Z,5.60
2017-08-15T12:08:04.295Z,5.13
2017-08-15T12:10:37.805Z,6.40
2017-08-15T12:13:11.244Z,5.50
2017-08-15T12:15:44.158Z,5.87
2017-08-15T12:18:18.372Z,5.37
2017-08-15T12:20:52.684Z,5.50
2017-08-15T12:23:26.680Z,6.10
2017-08-15T12:25:59.460Z,5.73
2017-08-15T12:28:32.823Z,5.73
2017-08-15T12:31:06.325Z,6.23
2017-08-15T12:33:40.322Z,5.90
2017-08-15T12:36:13.219Z,5.20
2017-08-15T12:38:48.044Z,5.33
2017-08-15T12:41:20.685Z,6.00
2017-08-15T12:43:54.318Z,5.50
2017-08-15T12:46:27.333Z,5.70
2017-08-15T12:49:00.810Z,5.43
2017-08-15T12:51:35.050Z,5.37
2017-08-15T12:54:08.707Z,5.47
2017-08-15T12:56:41.875Z,5.60
2017-08-15T12:59:16.653Z,6.20
2017-08-15T13:01:49.370Z,5.60
2017-08-15T13:04:23.162Z,6.40
2017-08-15T13:06:56.317Z,6.00
2017-08-15T13:09:29.863Z,5.43
2017-08-15T13:12:02.971Z,5.30
2017-08-15T13:14:36.587Z,5.47
2017-08-15T13:17:09.783Z,5.73
2017-08-15T13:19:43.389Z,6.40
2017-08-15T13:22:16.921Z,5.17
2017-08-15T13:24:49.856Z,5.30
2017-08-15T13:27:23.221Z,5.60
2017-08-15T13:29:57.375Z,5.60
2017-08-15T13:32:31.315Z,5.17
2017-08-15T13:35:04.102Z,5.50
2017-08-15T13:37:37.892Z,5.60
2017-08-15T13:40:10.975Z,6.17
2017-08-15T13:42:45.040Z,5.63
2017-08-15T13:45:17.806Z,5.70
2017-08-15T13:47:50.935Z,6.27
2017-08-15T13:50:25.022Z,5.43
2017-08-15T13:53:01.741Z,5.37
2017-08-15T13:55:35.638Z,5.73
2017-08-15T13:58:08.462Z,5.87
2017-08-15T14:00:41.754Z,5.07
2017-08-15T14:03:16.179Z,5.97
2017-08-15T14:05:50.530Z,5.17
2017-08-15T14:08:23.811Z,6.10
2017-08-15T14:10:57.963Z,5.77
2017-08-15T14:13:30.497Z,5.20
2017-08-15T14:16:04.011Z,5.40
2017-08-15T14:18:37.116Z,5.90
2017-08-15T14:21:10.521Z,5.67
2017-08-15T14:23:43.905Z,6.90
2017-08-15T14:26:18.243Z,5.53
2017-08-15T14:28:51.529Z,5.90
2017-08-15T14:31:25.000Z,5.93
2017-08-15T14:34:02.220Z,5.90
2017-08-15T14:36:35.554Z,5.73
2017-08-15T14:39:08.864Z,5.27
2017-08-15T14:41:43.111Z,5.20
2017-08-15T14:44:16.572Z,6.20
2017-08-15T14:46:49.944Z,6.27
2017-08-15T14:49:23.308Z,4.93
2017-08-15T14:51:56.750Z,6.37
2017-08-15T14:54:31.108Z,5.87
2017-08-15T14:57:04.551Z,5.83
2017-08-15T14:59:44.132Z,5.43
2017-08-15T15:02:18.513Z,5.63
2017-08-15T15:04:54.949Z,5.67
2017-08-15T15:07:29.911Z,5.40
2017-08-15T15:10:02.959Z,5.43
2017-08-15T15:12:36.395Z,5.20
2017-08-15T15:15:09.523Z,5.40
2017-08-15T15:17:43.046Z,5.33
2017-08-15T15:20:16.387Z,5.73
2017-08-15T15:22:56.743Z,5.30
2017-08-15T15:25:29.967Z,5.70
2017-08-15T15:28:03.374Z,5.60
2017-08-15T15:30:36.733Z,5.27
2017-08-15T15:33:09.895Z,5.13
2017-08-15T15:35:43.534Z,4.80
2017-08-15T15:38:16.781Z,5.30
2017-08-15T15:40:50.096Z,5.07
2017-08-15T15:43:23.526Z,5.10
2017-08-15T15:45:57.472Z,5.13
2017-08-15T15:48:30.258Z,4.70
2017-08-15T15:51:03.599Z,5.50
2017-08-15T15:53:37.929Z,4.67
2017-08-15T15:56:10.847Z,5.03
2017-08-15T15:58:44.739Z,6.10
2017-08-15T16:01:19.073Z,5.10
2017-08-15T16:03:54.835Z,5.17
2017-08-15T16:06:28.533Z,5.20
2017-08-15T16:09:05.085Z,5.53
2017-08-15T16:11:50.844Z,4.80
2017-08-15T16:14:32.971Z,5.67
2017-08-15T16:17:17.724Z,5.17
2017-08-15T16:19:57.674Z,6.00
2017-08-15T16:22:41.858Z,5.10
2017-08-15T16:25:25.550Z,4.97
2017-08-15T16:28:07.280Z,7.20
2017-08-15T16:30:44.947Z,8.30
2017-08-15T16:36:14.678Z,7.50
2017-08-15T16:39:03.343Z,6.60
2017-08-15T16:41:45.376Z,6.40
2017-08-15T16:44:28.577Z,7.53
2017-08-15T16:47:05.329Z,10.67
2017-08-15T16:49:52.658Z,13.53
2017-08-15T16:52:42.357Z,7.80
2017-08-15T16:55:27.268Z,9.07
2017-08-15T16:58:16.470Z,7.47
2017-08-15T17:00:59.155Z,8.47
2017-08-15T17:03:37.722Z,8.40
2017-08-15T17:06:19.322Z,8.20
2017-08-15T17:08:56.973Z,7.50
2017-08-15T17:11:43.179Z,7.90
2017-08-15T17:14:23.949Z,7.73
2017-08-15T17:17:05.362Z,8.60
2017-08-15T17:19:40.496Z,9.10
2017-08-15T17:22:22.570Z,9.47
2017-08-15T17:25:01.978Z,8.53
2017-08-15T17:27:44.362Z,8.07
2017-08-15T17:30:20.407Z,10.13
2017-08-15T17:33:03.054Z,10.83
2017-08-15T17:35:41.983Z,7.67
2017-08-15T17:38:32.203Z,6.93
2017-08-15T17:41:09.652Z,5.83
2017-08-15T17:43:55.914Z,5.90
2017-08-15T17:46:31.592Z,5.70
2017-08-15T17:49:13.902Z,6.33
2017-08-15T17:51:59.034Z,5.70
2017-08-15T17:54:39.078Z,5.63
2017-08-15T17:57:23.636Z,5.83
2017-08-15T18:00:05.180Z,5.10
2017-08-15T18:02:49.813Z,5.00
2017-08-15T18:05:29.803Z,5.20
2017-08-15T18:08:15.950Z,5.17
2017-08-15T18:10:57.063Z,5.00
2017-08-15T18:16:32.915Z,5.40
2017-08-15T18:19:10.991Z,5.53
2017-08-15T18:21:57.539Z,5.60
2017-08-15T18:24:47.110Z,5.13
2017-08-15T18:27:24.698Z,4.80
2017-08-15T18:29:58.129Z,3.77
2017-08-15T18:32:42.115Z,4.47
2017-08-15T18:35:22.861Z,4.30
2017-08-15T18:38:10.520Z,4.17
2017-08-15T18:46:20.328Z,4.20
2017-08-15T18:51:55.292Z,4.33
2017-08-15T18:57:23.459Z,4.03
2017-08-15T18:59:59.959Z,4.67
2017-08-15T19:02:37.112Z,3.97
2017-08-15T19:05:20.195Z,3.77
2017-08-15T19:08:01.219Z,4.33
2017-08-15T19:10:39.031Z,3.90
2017-08-15T19:13:16.230Z,3.90
2017-08-15T19:15:53.639Z,3.80
2017-08-15T19:18:34.759Z,3.70
2017-08-15T19:21:19.500Z,3.60
2017-08-15T19:23:58.108Z,3.90
2017-08-15T19:26:40.754Z,3.97
2017-08-15T19:29:22.763Z,4.07
2017-08-15T19:32:00.251Z,3.83
2017-08-15T19:34:40.874Z,3.53
2017-08-15T19:37:25.924Z,3.60
2017-08-15T19:40:14.842Z,3.43
2017-08-15T19:43:01.660Z,3.17
2017-08-15T19:45:34.385Z,3.37
2017-08-15T19:48:09.049Z,3.17
2017-08-15T19:50:48.803Z,2.73
2017-08-15T19:53:21.527Z,2.93
2017-08-15T19:55:54.733Z,3.07
2017-08-15T19:58:33.381Z,3.00
2017-08-15T20:01:19.487Z,3.17
2017-08-15T20:04:08.264Z,3.47
2017-08-15T20:06:55.481Z,3.30
2017-08-15T20:09:39.691Z,4.30
2017-08-15T20:12:20.219Z,3.43
2017-08-15T20:14:59.503Z,3.77
2017-08-15T20:17:32.915Z,3.03
2017-08-15T20:20:16.131Z,2.83
2017-08-15T20:22:50.035Z,3.83
2017-08-15T20:28:14.306Z,3.23
2017-08-15T20:30:49.384Z,3.77
2017-08-15T20:33:35.542Z,3.53
2017-08-15T20:36:12.352Z,3.73
2017-08-15T20:38:47.248Z,3.70
2017-08-15T20:41:22.511Z,3.97
2017-08-15T20:43:59.521Z,3.87
2017-08-15T20:46:35.225Z,3.83
2017-08-15T20:49:10.502Z,4.97
2017-08-15T20:51:45.956Z,3.63
2017-08-15T20:54:19.967Z,3.90
2017-08-15T20:56:54.979Z,4.53
2017-08-15T20:59:29.351Z,5.03
2017-08-15T21:02:04.153Z,4.67
2017-08-15T21:04:39.063Z,4.50
2017-08-15T21:10:21.321Z,4.40
2017-08-15T21:13:14.814Z,4.90
2017-08-15T21:16:03.593Z,4.53
2017-08-15T21:18:38.272Z,4.07
2017-08-15T21:21:12.436Z,4.30
2017-08-15T21:23:46.885Z,4.97
2017-08-15T21:26:21.779Z,4.60
2017-08-15T21:28:58.140Z,3.90
2017-08-15T21:31:34.575Z,4.17
2017-08-15T21:34:08.243Z,4.00
2017-08-15T21:36:43.253Z,5.17
2017-08-15T21:39:22.720Z,5.20
2017-08-15T21:41:59.680Z,3.90
2017-08-15T21:44:34.422Z,5.00
2017-08-15T21:47:08.997Z,4.27
2017-08-15T21:49:45.879Z,4.37
2017-08-15T21:52:18.989Z,4.30
2017-08-15T21:54:52.560Z,4.50
2017-08-15T21:57:30.607Z,4.97
2017-08-15T22:00:04.663Z,4.30
2017-08-15T22:02:40.332Z,4.70
2017-08-15T22:05:15.337Z,4.67
2017-08-15T22:07:50.201Z,4.30
2017-08-15T22:10:23.657Z,5.00
2017-08-15T22:13:05.498Z,5.50
2017-08-15T22:15:43.784Z,5.10
2017-08-15T22:18:20.406Z,4.93
2017-08-15T22:20:54.654Z,4.70
2017-08-15T22:23:28.592Z,5.57
2017-08-15T22:26:01.427Z,5.47
2017-08-15T22:28:34.801Z,5.90
2017-08-15T22:31:16.072Z,5.90
2017-08-15T22:33:49.540Z,5.10
2017-08-15T22:36:23.465Z,6.10
2017-08-15T22:38:57.881Z,5.63
2017-08-15T22:41:31.932Z,6.00
2017-08-15T22:44:07.326Z,5.10
2017-08-15T22:46:42.648Z,4.50
2017-08-15T22:49:18.125Z,5.60
2017-08-15T22:51:53.076Z,4.17
2017-08-15T22:54:28.824Z,4.63
2017-08-15T22:57:02.974Z,4.83
2017-08-15T22:59:38.515Z,5.70
2017-08-15T23:02:12.423Z,5.00
2017-08-15T23:04:47.117Z,5.40
2017-08-15T23:07:26.478Z,5.20
2017-08-15T23:10:01.291Z,5.97
2017-08-15T23:12:36.498Z,5.13
2017-08-15T23:15:13.463Z,4.93
2017-08-15T23:17:47.614Z,5.70
2017-08-15T23:20:22.495Z,6.10
2017-08-15T23:23:00.514Z,5.80
2017-08-15T23:25:38.628Z,6.00
2017-08-15T23:28:15.228Z,6.20
2017-08-15T23:30:50.423Z,6.77
2017-08-15T23:33:23.992Z,6.00
2017-08-15T23:35:57.680Z,6.23
2017-08-15T23:38:32.104Z,5.70
2017-08-15T23:41:05.311Z,5.13
2017-08-15T23:43:38.723Z,5.87
2017-08-15T23:46:12.052Z,5.60
2017-08-15T23:48:45.442Z,6.10
2017-08-15T23:51:18.872Z,5.73
2017-08-15T23:53:52.115Z,8.13
2017-08-15T23:56:25.468Z,7.20
2017-08-15T23:58:59.032Z,7.87
